createdAt,value
2019-03-25T00:02:02.648Z,2.30
2019-03-25T00:04:36.523Z,2.30
2019-03-25T00:07:06.780Z,2.30
2019-03-25T00:09:39.770Z,2.30
2019-03-25T00:12:19.266Z,2.30
2019-03-25T00:14:53.727Z,2.20
2019-03-25T00:17:28.063Z,2.20
2019-03-25T00:20:03.360Z,2.20
2019-03-25T00:22:38.563Z,2.20
2019-03-25T00:25:12.804Z,2.20
2019-03-25T00:27:44.195Z,2.10
2019-03-25T00:30:16.801Z,2.10
2019-03-25T00:32:52.128Z,2.00
2019-03-25T00:35:28.678Z,1.90
2019-03-25T00:38:05.125Z,1.90
2019-03-25T00:40:39.584Z,1.80
2019-03-25T00:43:11.764Z,1.80
2019-03-25T00:45:43.779Z,1.80
2019-03-25T00:48:17.104Z,1.80
2019-03-25T00:50:48.777Z,1.70
2019-03-25T00:53:19.726Z,1.70
2019-03-25T00:55:50.823Z,1.70
2019-03-25T00:58:24.815Z,1.60
2019-03-25T01:01:01.087Z,1.60
2019-03-25T01:03:32.670Z,1.60
2019-03-25T01:06:03.742Z,1.60
2019-03-25T01:08:35.612Z,1.50
2019-03-25T01:11:08.426Z,1.50
2019-03-25T01:13:41.092Z,1.40
2019-03-25T01:16:18.176Z,1.40
2019-03-25T01:18:53.547Z,1.40
2019-03-25T01:21:25.735Z,1.40
2019-03-25T05:53:21.565Z,1.20
2019-03-25T05:55:59.011Z,1.20
2019-03-25T05:58:37.132Z,1.30
2019-03-25T06:01:11.469Z,1.30
2019-03-25T06:03:48.347Z,1.30
2019-03-25T06:06:22.692Z,1.30
2019-03-25T06:08:59.239Z,1.30
2019-03-25T06:11:32.580Z,1.30
2019-03-25T06:14:03.698Z,1.40
2019-03-25T06:16:34.839Z,1.40
2019-03-25T06:19:06.078Z,1.50
2019-03-25T06:21:36.523Z,1.50
2019-03-25T06:24:08.692Z,1.60
2019-03-25T06:26:40.320Z,1.80
2019-03-25T06:29:14.297Z,1.90
2019-03-25T06:31:44.559Z,2.10
2019-03-25T06:34:20.927Z,2.30
2019-03-25T06:36:55.269Z,2.40
2019-03-25T06:39:28.145Z,2.50
2019-03-25T06:42:01.823Z,2.50
2019-03-25T06:44:33.448Z,2.50
2019-03-25T06:47:06.758Z,2.50
2019-03-25T06:49:39.966Z,2.50
2019-03-25T06:52:12.614Z,2.50
2019-03-25T06:54:44.315Z,2.60
2019-03-25T06:57:25.524Z,2.60
2019-03-25T06:59:55.364Z,2.70
2019-03-25T07:02:31.711Z,2.70
2019-03-25T07:05:06.539Z,2.90
2019-03-25T07:07:42.026Z,2.90
2019-03-25T07:10:20.319Z,2.90
2019-03-25T07:12:55.209Z,3.00
2019-03-25T07:15:33.957Z,3.10
2019-03-25T07:18:12.787Z,3.20
2019-03-25T07:20:47.743Z,3.30
2019-03-25T07:23:22.311Z,3.30
2019-03-25T07:26:01.189Z,3.20
2019-03-25T07:28:38.628Z,3.10
2019-03-25T07:31:11.664Z,3.20
2019-03-25T07:33:47.658Z,3.10
2019-03-25T07:36:21.374Z,3.00
2019-03-25T07:39:00.120Z,3.00
2019-03-25T07:41:34.571Z,3.00
2019-03-25T07:44:10.345Z,3.00
2019-03-25T07:46:41.581Z,3.00
2019-03-25T07:49:17.450Z,3.00
2019-03-25T07:51:50.458Z,2.90
2019-03-25T07:54:22.356Z,2.80
2019-03-25T07:56:53.479Z,2.80
2019-03-25T07:59:27.023Z,2.90
2019-03-25T08:02:00.680Z,2.90
2019-03-25T08:04:35.668Z,3.00
2019-03-25T08:07:09.545Z,3.10
2019-03-25T08:09:49.408Z,3.40
2019-03-25T08:12:25.302Z,3.70
2019-03-25T08:15:10.308Z,4.10
2019-03-25T08:17:46.149Z,4.30
2019-03-25T08:20:22.595Z,4.40
2019-03-25T08:22:57.826Z,4.40
2019-03-25T08:25:32.498Z,4.30
2019-03-25T08:28:08.864Z,4.10
2019-03-25T08:30:45.664Z,3.90
2019-03-25T08:33:26.277Z,3.60
2019-03-25T08:36:08.829Z,3.50
2019-03-25T08:38:48.176Z,3.30
2019-03-25T08:41:23.600Z,3.10
2019-03-25T08:43:59.360Z,3.10
2019-03-25T08:46:31.831Z,3.10
2019-03-25T08:49:05.476Z,3.20
2019-03-25T08:51:43.328Z,3.10
2019-03-25T08:54:17.358Z,3.00
2019-03-25T08:56:48.956Z,3.10
2019-03-25T08:59:24.575Z,3.20
2019-03-25T09:01:58.392Z,3.20
2019-03-25T09:04:34.757Z,3.30
2019-03-25T09:07:11.433Z,3.40
2019-03-25T09:09:48.315Z,3.40
2019-03-25T09:12:22.114Z,3.40
2019-03-25T09:14:52.931Z,3.40
2019-03-25T09:17:24.150Z,3.50
2019-03-25T09:19:56.224Z,3.50
2019-03-25T09:22:27.366Z,3.50
2019-03-25T09:24:58.077Z,3.60
2019-03-25T09:27:30.067Z,3.60
2019-03-25T09:30:09.838Z,3.50
2019-03-25T09:32:43.309Z,3.40
2019-03-25T09:35:15.803Z,3.20
2019-03-25T09:37:52.726Z,3.30
2019-03-25T09:40:30.959Z,3.30
2019-03-25T09:43:09.288Z,3.30
2019-03-25T09:45:43.264Z,3.40
2019-03-25T09:48:19.081Z,3.40
2019-03-25T09:50:51.437Z,3.50
2019-03-25T09:53:22.718Z,3.70
2019-03-25T09:55:53.528Z,3.70
2019-03-25T09:58:36.351Z,3.80
2019-03-25T10:00:59.743Z,3.90
2019-03-25T10:03:32.689Z,4.00
2019-03-25T10:06:03.099Z,4.10
2019-03-25T10:08:41.412Z,4.30
2019-03-25T10:11:15.691Z,4.40
2019-03-25T10:13:50.132Z,4.50
2019-03-25T10:16:45.573Z,4.50
2019-03-25T10:19:21.419Z,4.60
2019-03-25T10:21:58.657Z,4.70
2019-03-25T10:24:34.241Z,4.80
2019-03-25T10:27:06.156Z,4.80
2019-03-25T10:29:37.319Z,4.80
2019-03-25T10:32:07.499Z,4.80
2019-03-25T10:34:40.126Z,4.90
2019-03-25T10:37:16.764Z,4.90
2019-03-25T10:39:47.069Z,4.90
2019-03-25T10:42:24.427Z,4.80
2019-03-25T10:44:59.588Z,4.80
2019-03-25T10:47:35.167Z,4.80
2019-03-25T10:50:11.078Z,4.70
2019-03-25T10:52:46.758Z,4.80
2019-03-25T10:55:23.331Z,4.80
2019-03-25T10:57:58.434Z,4.80
2019-03-25T11:00:32.356Z,4.80
2019-03-25T11:03:08.909Z,4.80
2019-03-25T11:05:41.493Z,4.90
2019-03-25T11:08:17.929Z,4.90
2019-03-25T11:10:52.164Z,4.90
2019-03-25T11:13:23.873Z,4.90
2019-03-25T11:15:58.431Z,5.00
2019-03-25T11:18:45.735Z,5.00
2019-03-25T11:21:20.696Z,5.00
2019-03-25T11:23:54.128Z,5.10
2019-03-25T11:26:31.399Z,5.10
2019-03-25T11:29:08.535Z,5.20
2019-03-25T11:31:41.405Z,5.20
2019-03-25T11:34:15.402Z,5.20
2019-03-25T11:36:49.823Z,5.20
2019-03-25T11:39:25.954Z,5.20
2019-03-25T11:41:58.152Z,5.20
2019-03-25T11:44:30.151Z,5.20
2019-03-25T11:47:02.520Z,5.30
2019-03-25T11:49:38.566Z,5.30
2019-03-25T11:52:12.223Z,5.40
2019-03-25T11:54:44.515Z,5.40
2019-03-25T11:57:23.018Z,5.40
2019-03-25T11:59:55.236Z,5.50
2019-03-25T12:02:30.761Z,5.50
2019-03-25T12:05:04.165Z,5.50
2019-03-25T12:07:39.361Z,5.50
2019-03-25T12:10:11.042Z,5.60
2019-03-25T12:12:42.075Z,5.60
2019-03-25T12:15:15.235Z,5.60
2019-03-25T12:17:53.248Z,5.50
2019-03-25T12:20:29.550Z,5.70
2019-03-25T12:23:04.800Z,5.70
2019-03-25T12:25:43.456Z,5.80
2019-03-25T12:28:20.541Z,5.70
2019-03-25T12:30:53.956Z,5.80
2019-03-25T12:33:30.630Z,5.80
2019-03-25T12:36:10.400Z,5.90
2019-03-25T12:38:42.512Z,5.90
2019-03-25T12:41:17.127Z,5.90
2019-03-25T12:43:49.591Z,5.90
2019-03-25T12:46:22.274Z,5.90
2019-03-25T12:48:54.819Z,5.90
2019-03-25T12:51:30.558Z,6.00
2019-03-25T12:54:07.821Z,6.10
2019-03-25T12:56:41.798Z,6.10
2019-03-25T12:59:15.738Z,6.00
2019-03-25T13:02:09.055Z,6.10
2019-03-25T13:04:46.322Z,6.10
2019-03-25T13:07:25.311Z,6.00
2019-03-25T13:10:04.746Z,6.10
2019-03-25T13:12:39.750Z,6.20
2019-03-25T13:15:19.044Z,6.20
2019-03-25T13:17:52.035Z,6.20
2019-03-25T13:20:23.039Z,6.20
2019-03-25T13:22:53.995Z,6.20
2019-03-25T13:25:24.742Z,6.20
2019-03-25T13:27:55.743Z,6.30
2019-03-25T13:30:28.649Z,6.30
2019-03-25T13:33:04.069Z,6.30
2019-03-25T13:35:47.815Z,6.30
2019-03-25T13:38:27.412Z,6.30
2019-03-25T13:41:00.767Z,6.30
2019-03-25T13:43:36.030Z,6.30
2019-03-25T13:46:11.312Z,6.30
2019-03-25T13:48:48.066Z,6.30
2019-03-25T13:51:21.785Z,6.30
2019-03-25T13:53:55.025Z,6.30
2019-03-25T13:56:31.563Z,6.30
2019-03-25T13:59:08.889Z,6.40
2019-03-25T14:01:59.567Z,6.40
2019-03-25T14:04:43.585Z,6.40
2019-03-25T14:07:40.835Z,6.40
2019-03-25T14:10:15.490Z,6.30
2019-03-25T14:12:48.918Z,6.30
2019-03-25T14:15:23.079Z,6.30
2019-03-25T14:17:54.536Z,6.30
2019-03-25T14:20:25.682Z,6.40
2019-03-25T14:23:00.331Z,6.40
2019-03-25T14:25:31.405Z,6.40
2019-03-25T14:28:08.932Z,6.30
2019-03-25T14:30:40.958Z,6.30
2019-03-25T14:33:15.392Z,6.30
2019-03-25T14:35:47.140Z,6.40
2019-03-25T14:38:17.037Z,6.30
2019-03-25T14:40:50.079Z,6.30
2019-03-25T14:43:24.739Z,6.20
2019-03-25T14:46:01.091Z,6.20
2019-03-25T14:48:39.328Z,6.20
2019-03-25T14:51:15.151Z,6.20
2019-03-25T14:53:49.626Z,6.20
2019-03-25T14:56:22.956Z,6.20
2019-03-25T14:58:53.253Z,6.20
2019-03-25T15:01:27.656Z,6.30
2019-03-25T15:04:04.831Z,6.30
2019-03-25T15:06:37.919Z,6.40
2019-03-25T15:09:14.114Z,6.40
2019-03-25T15:11:50.591Z,6.50
2019-03-25T15:14:27.072Z,6.60
2019-03-25T15:17:00.652Z,6.70
2019-03-25T15:19:32.771Z,6.60
2019-03-25T15:22:02.698Z,6.60
2019-03-25T15:24:40.171Z,6.50
2019-03-25T15:27:19.386Z,6.50
2019-03-25T15:29:55.879Z,6.50
2019-03-25T15:32:32.384Z,6.50
2019-03-25T15:35:07.904Z,6.40
2019-03-25T15:37:40.906Z,6.40
2019-03-25T15:40:14.664Z,6.30
2019-03-25T15:42:53.225Z,6.30
2019-03-25T15:45:28.963Z,6.30
2019-03-25T15:48:01.087Z,6.20
2019-03-25T15:50:31.943Z,6.10
2019-03-25T15:53:02.088Z,6.10
2019-03-25T15:55:34.623Z,6.10
2019-03-25T15:58:07.391Z,6.20
2019-03-25T16:00:47.473Z,6.20
2019-03-25T16:03:14.775Z,6.20
2019-03-25T16:05:46.679Z,6.20
2019-03-25T16:08:22.500Z,6.10
2019-03-25T16:10:54.875Z,6.10
2019-03-25T16:13:30.157Z,6.10
2019-03-25T16:16:05.351Z,6.00
2019-03-25T16:18:46.955Z,6.00
2019-03-25T16:21:21.986Z,5.90
2019-03-25T16:23:58.180Z,5.90
2019-03-25T16:26:31.671Z,5.80
2019-03-25T16:29:07.306Z,5.70
2019-03-25T16:31:41.545Z,5.60
2019-03-25T16:34:12.934Z,5.50
2019-03-25T16:36:46.978Z,5.40
2019-03-25T16:39:21.823Z,5.40
2019-03-25T16:41:59.312Z,5.30
2019-03-25T16:44:36.875Z,5.20
2019-03-25T16:47:14.462Z,5.10
2019-03-25T16:49:50.471Z,5.10
2019-03-25T16:52:29.255Z,5.00
2019-03-25T16:55:03.589Z,4.90
2019-03-25T16:57:35.821Z,4.90
2019-03-25T17:00:07.199Z,4.80
2019-03-25T17:02:39.275Z,4.70
2019-03-25T17:05:14.395Z,4.70
2019-03-25T17:07:45.557Z,4.60
2019-03-25T17:10:19.457Z,4.40
2019-03-25T17:12:54.627Z,4.30
2019-03-25T17:15:26.559Z,4.20
2019-03-25T17:17:57.968Z,4.00
2019-03-25T17:20:32.679Z,3.90
2019-03-25T17:23:09.903Z,3.80
2019-03-25T17:25:52.963Z,3.60
2019-03-25T17:28:22.757Z,3.50
2019-03-25T17:30:58.366Z,3.50
2019-03-25T17:33:30.922Z,3.40
2019-03-25T17:36:02.819Z,3.30
2019-03-25T17:38:39.247Z,3.20
2019-03-25T17:41:16.931Z,3.10
2019-03-25T17:43:51.270Z,3.00
2019-03-25T17:46:27.849Z,3.00
2019-03-25T17:48:59.811Z,2.90
2019-03-25T17:51:36.222Z,2.90
2019-03-25T17:54:11.391Z,2.90
2019-03-25T17:56:44.992Z,2.80
2019-03-25T17:59:16.184Z,2.90
2019-03-25T18:02:04.982Z,2.90
2019-03-25T18:04:54.011Z,2.80
2019-03-25T18:07:45.573Z,2.80
2019-03-25T18:10:20.811Z,2.80
2019-03-25T18:12:55.692Z,2.80
2019-03-25T18:15:28.817Z,2.80
2019-03-25T18:18:03.399Z,2.80
2019-03-25T18:20:40.654Z,2.80
2019-03-25T18:23:15.648Z,2.80
2019-03-25T18:25:47.788Z,2.90
2019-03-25T18:28:19.047Z,2.90
2019-03-25T18:30:55.749Z,2.90
2019-03-25T18:33:31.487Z,2.90
2019-03-25T18:36:06.847Z,2.90
2019-03-25T18:38:41.671Z,2.80
2019-03-25T18:41:14.956Z,2.90
2019-03-25T18:43:51.400Z,2.90
2019-03-25T18:46:24.541Z,2.90
2019-03-25T18:48:55.114Z,2.80
2019-03-25T18:54:02.240Z,2.80
2019-03-25T18:56:39.321Z,2.80
2019-03-25T18:59:16.384Z,2.70
2019-03-25T19:01:54.346Z,2.70
2019-03-25T19:04:22.765Z,2.60
2019-03-25T19:06:53.530Z,2.60
2019-03-25T19:09:25.388Z,2.60
2019-03-25T19:12:00.031Z,2.70
2019-03-25T19:14:37.711Z,2.60
2019-03-25T19:17:13.250Z,2.60
2019-03-25T19:19:47.207Z,2.60
2019-03-25T19:22:25.737Z,2.50
2019-03-25T19:25:02.590Z,2.50
2019-03-25T19:27:37.045Z,2.50
2019-03-25T19:30:09.556Z,2.40
2019-03-25T19:32:42.274Z,2.40
2019-03-25T19:35:16.671Z,2.30
2019-03-25T19:37:53.893Z,2.30
2019-03-25T19:40:28.326Z,2.30
2019-03-25T19:43:02.401Z,2.20
2019-03-25T19:45:34.860Z,2.20
2019-03-25T19:48:06.622Z,2.20
2019-03-25T19:50:44.261Z,2.20
2019-03-25T19:53:19.398Z,2.20
2019-03-25T19:55:48.369Z,2.20
2019-03-25T19:58:24.909Z,2.10
2019-03-25T20:00:59.459Z,2.10
2019-03-25T20:03:40.677Z,2.00
2019-03-25T20:06:12.425Z,2.00
2019-03-25T20:08:47.854Z,1.90
2019-03-25T20:11:23.345Z,1.90
2019-03-25T20:13:55.454Z,1.80
2019-03-25T20:16:26.757Z,1.80
2019-03-25T20:19:01.141Z,1.80
2019-03-25T20:21:34.469Z,1.80
2019-03-25T20:24:04.812Z,1.80
2019-03-25T20:26:38.308Z,1.90
2019-03-25T20:29:14.491Z,1.90
2019-03-25T20:31:52.039Z,1.90
2019-03-25T20:34:25.943Z,1.90
2019-03-25T20:36:57.089Z,1.90
2019-03-25T20:39:31.171Z,2.00
2019-03-25T20:42:03.948Z,2.00
2019-03-25T20:44:35.312Z,1.90
2019-03-25T20:47:05.998Z,1.90
2019-03-25T20:49:46.124Z,1.90
2019-03-25T20:52:18.326Z,1.90
2019-03-25T20:54:49.960Z,1.90
2019-03-25T20:57:25.340Z,1.90
2019-03-25T21:00:02.342Z,1.90
2019-03-25T21:02:45.060Z,1.90
2019-03-25T21:05:18.945Z,1.90
2019-03-25T21:07:54.239Z,2.00
2019-03-25T21:10:26.850Z,1.90
2019-03-25T21:13:03.388Z,2.00
2019-03-25T21:15:40.360Z,2.10
2019-03-25T21:18:17.259Z,2.10
2019-03-25T21:20:53.604Z,2.10
2019-03-25T21:23:29.314Z,2.10
2019-03-25T21:26:00.546Z,2.10
2019-03-25T21:28:31.994Z,2.10
2019-03-25T21:31:03.177Z,2.10
2019-03-25T21:33:34.435Z,2.10
2019-03-25T21:36:05.923Z,2.10
2019-03-25T21:38:44.486Z,2.10
2019-03-25T21:41:24.422Z,2.10
2019-03-25T21:43:58.331Z,2.20
2019-03-25T21:46:37.491Z,2.20
2019-03-25T21:49:14.231Z,2.10
2019-03-25T21:51:47.130Z,2.20
2019-03-25T21:54:20.752Z,2.10
2019-03-25T21:56:55.088Z,2.10
2019-03-25T21:59:27.250Z,2.10
2019-03-25T22:01:58.488Z,2.10
2019-03-25T22:04:28.991Z,2.00
2019-03-25T22:07:01.737Z,2.00
2019-03-25T22:09:38.368Z,2.00
2019-03-25T22:12:12.707Z,2.00
2019-03-25T22:14:47.245Z,2.00
2019-03-25T22:17:19.198Z,2.00
2019-03-25T22:19:51.585Z,2.00
2019-03-25T22:22:27.167Z,2.00
2019-03-25T22:24:59.084Z,2.00
2019-03-25T22:27:37.437Z,2.00
2019-03-25T22:30:13.155Z,2.10
2019-03-25T22:32:47.620Z,2.00
2019-03-25T22:35:21.993Z,2.00
2019-03-25T22:37:54.376Z,2.00
2019-03-25T22:40:32.708Z,2.00
2019-03-25T22:43:13.376Z,2.10
2019-03-25T22:45:48.707Z,2.10
2019-03-25T22:48:21.985Z,2.10
2019-03-25T22:51:01.563Z,2.10
2019-03-25T22:53:36.446Z,2.00
2019-03-25T22:56:11.370Z,2.00
2019-03-25T22:58:46.654Z,2.10
2019-03-25T23:01:24.098Z,2.10
2019-03-25T23:03:57.166Z,2.10
2019-03-25T23:06:31.111Z,2.10
2019-03-25T23:09:01.544Z,2.10
2019-03-25T23:11:37.023Z,2.10
2019-03-25T23:14:11.808Z,2.10
2019-03-25T23:16:43.519Z,2.10
2019-03-25T23:19:21.830Z,2.00
2019-03-25T23:21:56.522Z,2.00
2019-03-25T23:24:27.367Z,2.00
2019-03-25T23:27:01.338Z,2.00
2019-03-25T23:29:38.289Z,2.00
2019-03-25T23:32:09.804Z,2.00
2019-03-25T23:34:47.110Z,2.10
2019-03-25T23:37:24.168Z,2.00
2019-03-25T23:39:55.418Z,2.10
2019-03-25T23:42:30.881Z,2.10
2019-03-25T23:45:05.293Z,2.10
2019-03-25T23:47:39.015Z,2.10
2019-03-25T23:50:10.878Z,2.10
2019-03-25T23:52:44.592Z,2.10
2019-03-25T23:55:21.832Z,2.20
2019-03-25T23:57:56.162Z,2.20
